Time;durP1;ratioP1;P1;durP2;ratioP2;P2;SDS_P1;SDS_P2;PMS_P1;PMS_P2;Temp;Humidity;BMP_temperature;BMP_pressure;BME280_temperature;BME280_humidity;BME280_pressure;Samples;Min_cycle;Max_cycle;Signal;HPM_P1;HPM_P2
2024/01/01 00:01:50;;;;;;;126.40;53.80;;;;;;;3.92;54.66;100148.13;108059;1254;70152;-67
2024/01/01 00:04:16;;;;;;;113.80;49.30;;;;;;;3.94;54.85;100144.65;108161;1253;72585;-67
2024/01/01 00:06:43;;;;;;;107.40;46.10;;;;;;;4.03;54.62;100145.27;108263;1253;61792;-67
2024/01/01 00:09:09;;;;;;;112.10;45.80;;;;;;;4.03;54.51;100141.09;108220;1253;60543;-67
2024/01/01 00:11:37;;;;;;;95.80;40.20;;;;;;;4.05;54.45;100139.33;108227;1253;73723;-66
2024/01/01 00:14:04;;;;;;;77.20;35.60;;;;;;;4.06;54.15;100139.15;108200;1254;69687;-67
2024/01/01 00:16:31;;;;;;;80.80;35.90;;;;;;;4.05;54.46;100142.64;108350;1253;72170;-64
2024/01/01 00:18:58;;;;;;;90.90;40.80;;;;;;;4.13;54.01;100142.90;108319;1253;60410;-66
2024/01/01 00:21:25;;;;;;;86.60;38.50;;;;;;;4.12;54.15;100143.25;108300;1253;60294;-67
2024/01/01 00:23:51;;;;;;;88.60;39.10;;;;;;;4.07;54.22;100141.39;108237;1253;73877;-67
2024/01/01 00:26:18;;;;;;;94.20;39.50;;;;;;;4.15;54.25;100139.92;108166;1254;70119;-67
2024/01/01 00:28:47;;;;;;;111.80;46.50;;;;;;;4.17;54.03;100134.17;108215;1253;72474;-67
2024/01/01 00:31:13;;;;;;;105.00;46.60;;;;;;;4.04;54.32;100125.27;108250;1253;61840;-67
2024/01/01 00:33:40;;;;;;;106.00;47.10;;;;;;;4.00;54.54;100120.10;108260;1252;60311;-68
2024/01/01 00:36:08;;;;;;;130.40;53.40;;;;;;;4.08;54.19;100116.19;108334;1251;73815;-67
2024/01/01 00:38:35;;;;;;;111.60;45.90;;;;;;;4.09;54.05;100117.05;108242;1254;70793;-67
2024/01/01 00:41:01;;;;;;;95.30;42.10;;;;;;;4.14;53.85;100110.40;108242;1251;73490;-66
2024/01/01 00:43:28;;;;;;;93.70;40.20;;;;;;;4.12;53.94;100109.36;108275;1251;61634;-67
2024/01/01 00:45:55;;;;;;;81.60;37.40;;;;;;;4.03;54.24;100105.65;108250;1251;60306;-65
2024/01/01 00:48:22;;;;;;;70.80;32.90;;;;;;;3.88;54.65;100102.85;108185;1251;74060;-67
2024/01/01 00:50:48;;;;;;;71.90;33.70;;;;;;;3.94;54.78;100108.33;108284;1256;68977;-67
2024/01/01 00:53:15;;;;;;;106.60;46.90;;;;;;;3.94;54.48;100108.69;108278;1251;72898;-67
2024/01/01 00:55:42;;;;;;;107.80;45.70;;;;;;;3.93;54.96;100107.31;108352;1251;61005;-69
2024/01/01 00:58:09;;;;;;;81.90;36.80;;;;;;;3.91;54.91;100106.11;108355;1251;60315;-67
2024/01/01 01:00:36;;;;;;;113.30;48.10;;;;;;;3.90;54.84;100106.30;108351;1251;72385;-67
2024/01/01 01:03:04;;;;;;;100.40;45.40;;;;;;;3.97;54.54;100103.80;108401;1251;68809;-68
2024/01/01 01:05:30;;;;;;;93.10;45.40;;;;;;;4.01;54.48;100103.41;108291;1251;72750;-69
2024/01/01 01:07:58;;;;;;;86.90;38.20;;;;;;;3.97;54.52;100105.54;108254;1256;61759;-67
2024/01/01 01:10:26;;;;;;;72.40;32.60;;;;;;;3.93;54.45;100111.83;108399;1251;60415;-70
2024/01/01 01:12:56;;;;;;;78.00;36.20;;;;;;;3.90;54.58;100115.33;108399;1256;73720;-67
2024/01/01 01:15:26;;;;;;;96.60;41.30;;;;;;;3.92;54.75;100117.58;108380;1251;69143;-66
2024/01/01 01:17:53;;;;;;;81.10;39.20;;;;;;;3.93;54.58;100118.27;108371;1254;70250;-69
2024/01/01 01:20:20;;;;;;;103.30;45.80;;;;;;;3.98;54.41;100119.25;108277;1251;62014;-66
2024/01/01 01:22:47;;;;;;;100.00;45.50;;;;;;;4.02;54.52;100115.74;108360;1251;60344;-67
2024/01/01 01:25:14;;;;;;;102.00;45.40;;;;;;;4.02;54.55;100111.73;108308;1251;73741;-65
2024/01/01 01:27:41;;;;;;;101.00;44.20;;;;;;;3.98;54.34;100115.25;108280;1251;70712;-66
2024/01/01 01:30:09;;;;;;;86.20;39.60;;;;;;;3.95;54.36;100115.80;108211;1252;73263;-66
2024/01/01 01:32:37;;;;;;;98.00;44.10;;;;;;;3.94;54.44;100112.70;108238;1251;62244;-69
2024/01/01 01:35:04;;;;;;;90.20;43.30;;;;;;;3.88;54.69;100106.15;108381;1251;60442;-66
2024/01/01 01:37:31;;;;;;;98.20;44.70;;;;;;;3.91;54.39;100099.34;108351;1251;73720;-66
2024/01/01 01:39:59;;;;;;;78.20;37.40;;;;;;;3.98;54.33;100067.49;108276;1251;70873;-67
2024/01/01 01:42:27;;;;;;;70.00;32.20;;;;;;;3.91;54.45;100058.70;108404;1251;72602;-67
2024/01/01 01:44:55;;;;;;;83.40;38.30;;;;;;;3.86;55.03;100063.61;108311;1251;61827;-67
2024/01/01 01:47:25;;;;;;;93.20;40.10;;;;;;;3.92;55.20;100057.65;108344;1251;60414;-66
2024/01/01 01:49:51;;;;;;;90.60;39.50;;;;;;;3.97;55.38;100052.04;108306;1251;74254;-66
2024/01/01 01:52:18;;;;;;;97.00;39.90;;;;;;;4.07;55.19;100051.41;108333;1251;69509;-66
2024/01/01 01:54:45;;;;;;;87.70;39.90;;;;;;;4.11;55.29;100051.01;108275;1255;72950;-66
2024/01/01 01:57:14;;;;;;;92.20;40.60;;;;;;;4.26;55.00;100054.65;108296;1251;62147;-65
2024/01/01 01:59:43;;;;;;;93.00;39.30;;;;;;;4.33;55.17;100054.20;108382;1251;60086;-65
2024/01/01 02:02:11;;;;;;;88.60;39.50;;;;;;;4.48;54.88;100055.59;108374;1251;73618;-66
2024/01/01 02:04:38;;;;;;;97.60;42.70;;;;;;;4.45;55.04;100067.79;108308;1251;70167;-67
2024/01/01 02:07:05;;;;;;;87.00;40.80;;;;;;;4.38;55.58;100063.35;108367;1255;73082;-66
2024/01/01 02:09:32;;;;;;;107.30;47.80;;;;;;;4.38;55.87;100055.02;108333;1251;61911;-67
2024/01/01 02:11:59;;;;;;;100.60;46.50;;;;;;;4.42;56.19;100051.13;108354;1251;60791;-63
2024/01/01 02:14:26;;;;;;;104.00;47.20;;;;;;;4.46;56.21;100050.56;108407;1251;73972;-67
2024/01/01 02:20:02;;;;;;;127.50;53.10;;;;;;;2.26;66.21;100059.11;104889;1292;600072;-68
2024/01/01 02:22:41;;;;;;;105.60;47.20;;;;;;;3.92;60.40;100048.96;107168;1266;62636;-66
2024/01/01 02:25:09;;;;;;;108.70;47.50;;;;;;;3.89;60.43;100047.25;107250;1265;58698;-66
2024/01/01 02:27:37;;;;;;;110.50;48.70;;;;;;;3.88;60.50;100037.19;107807;1262;71186;-66
2024/01/01 02:30:10;;;;;;;114.80;51.30;;;;;;;4.00;60.63;100028.90;107817;1256;69935;-65
2024/01/01 02:32:38;;;;;;;120.10;51.50;;;;;;;3.99;60.61;100026.48;107632;1257;192858;-65
2024/01/01 02:35:08;;;;;;;94.50;44.70;;;;;;;3.80;61.05;100028.24;107587;1260;60555;-67
2024/01/01 02:37:38;;;;;;;91.30;42.70;;;;;;;3.75;61.49;100022.39;107881;1257;59294;-66
2024/01/01 02:40:08;;;;;;;96.40;41.30;;;;;;;3.89;61.22;100019.29;107740;1256;71236;-65
2024/01/01 02:42:36;;;;;;;73.70;36.70;;;;;;;4.01;61.28;100008.56;107780;1256;68840;-65
2024/01/01 02:45:06;;;;;;;77.60;36.80;;;;;;;4.13;61.39;100005.29;107747;1257;70856;-66
2024/01/01 02:47:35;;;;;;;108.20;48.10;;;;;;;4.28;61.28;99997.61;107677;1262;60571;-65
2024/01/01 02:50:03;;;;;;;82.50;37.30;;;;;;;4.27;61.58;99990.86;107755;1257;59643;-66
2024/01/01 02:52:31;;;;;;;63.80;31.40;;;;;;;4.29;62.09;99998.64;107815;1257;71980;-66
2024/01/01 02:54:58;;;;;;;70.70;35.50;;;;;;;4.39;62.71;99999.03;107862;1257;69448;-67
2024/01/01 02:57:26;;;;;;;61.50;31.90;;;;;;;4.65;62.40;99983.53;107771;1257;71463;-66
2024/01/01 02:59:54;;;;;;;56.10;30.20;;;;;;;4.68;62.53;99992.86;107735;1257;60372;-65
2024/01/01 03:02:21;;;;;;;60.20;30.10;;;;;;;4.80;62.52;99994.25;107696;1256;59506;-67
2024/01/01 03:04:49;;;;;;;67.00;33.20;;;;;;;4.92;62.35;99987.81;107855;1255;71550;-67
2024/01/01 03:07:17;;;;;;;63.50;31.50;;;;;;;4.90;62.78;99990.09;107831;1254;69159;-67
2024/01/01 03:09:44;;;;;;;68.30;32.50;;;;;;;5.04;62.78;99990.22;108017;1254;72433;-67
2024/01/01 03:12:12;;;;;;;61.40;30.20;;;;;;;5.28;62.22;99989.11;107735;1257;60392;-68
2024/01/01 03:14:43;;;;;;;59.30;30.60;;;;;;;5.52;61.75;99989.54;107820;1259;59535;-66
2024/01/01 03:17:11;;;;;;;56.00;30.10;;;;;;;5.54;61.63;99978.36;107852;1257;73041;-65
2024/01/01 03:19:39;;;;;;;64.30;29.60;;;;;;;5.70;61.22;99977.70;107798;1257;68784;-67
2024/01/01 03:22:06;;;;;;;58.80;28.00;;;;;;;5.58;61.69;99977.23;107819;1257;71930;-66
2024/01/01 03:24:34;;;;;;;57.30;27.40;;;;;;;5.65;61.59;99975.54;107838;1257;60861;-67
2024/01/01 03:27:01;;;;;;;68.50;30.40;;;;;;;5.65;61.69;99976.06;107731;1257;60445;-68
2024/01/01 03:29:29;;;;;;;58.40;29.00;;;;;;;5.93;61.07;99968.91;107858;1256;72357;-67
2024/01/01 03:31:56;;;;;;;47.80;26.20;;;;;;;6.19;60.25;99962.98;107768;1256;70103;-67
2024/01/01 03:34:24;;;;;;;49.60;27.00;;;;;;;6.17;60.37;99961.80;107803;1257;72711;-66
2024/01/01 03:36:51;;;;;;;67.50;31.80;;;;;;;6.20;60.21;99957.71;107837;1256;59746;-67
2024/01/01 03:39:19;;;;;;;58.70;30.20;;;;;;;6.13;60.42;99952.28;107714;1256;60019;-67
2024/01/01 03:41:47;;;;;;;50.20;27.80;;;;;;;6.32;60.08;99948.39;107790;1257;73099;-67
2024/01/01 03:44:15;;;;;;;62.40;33.80;;;;;;;6.39;59.79;99943.69;107715;1257;68181;-66
2024/01/01 03:46:43;;;;;;;59.50;30.10;;;;;;;6.51;59.54;99940.80;107700;1260;72810;-67
2024/01/01 03:49:10;;;;;;;56.90;29.90;;;;;;;6.43;59.65;99934.00;107756;1256;60953;-67
2024/01/01 03:51:38;;;;;;;66.10;32.40;;;;;;;6.45;59.68;99926.29;107685;1256;59515;-66
2024/01/01 03:54:06;;;;;;;60.80;32.00;;;;;;;6.56;59.61;99916.96;107803;1257;71782;-65
2024/01/01 03:56:33;;;;;;;69.60;32.00;;;;;;;6.80;59.01;99918.98;107749;1256;70174;-65
2024/01/01 03:59:02;;;;;;;69.70;33.00;;;;;;;6.74;59.00;99914.78;107724;1260;71462;-66
2024/01/01 04:01:31;;;;;;;54.50;26.20;;;;;;;6.83;59.04;99916.83;107732;1257;59763;-66
2024/01/01 04:04:03;;;;;;;66.60;31.90;;;;;;;6.86;58.75;99915.36;107608;1256;60149;-66
2024/01/01 04:06:31;;;;;;;60.00;29.90;;;;;;;6.93;58.60;99915.19;107587;1256;73029;-66
2024/01/01 04:08:58;;;;;;;58.90;30.80;;;;;;;6.87;58.85;99910.61;107534;1257;69973;-66
2024/01/01 04:11:26;;;;;;;50.70;25.30;;;;;;;6.88;58.76;99910.41;107580;1256;72498;-65
2024/01/01 04:13:53;;;;;;;45.70;21.60;;;;;;;7.01;58.22;99902.39;107557;1263;60892;-66
2024/01/01 04:16:21;;;;;;;51.90;27.10;;;;;;;6.89;58.23;99909.52;107594;1256;59501;-67
2024/01/01 04:18:48;;;;;;;46.80;25.50;;;;;;;6.92;58.05;99910.31;107570;1257;73091;-67
2024/01/01 04:21:16;;;;;;;54.40;26.20;;;;;;;6.96;57.98;99903.23;107584;1257;69233;-66
2024/01/01 04:23:43;;;;;;;51.30;26.00;;;;;;;7.05;57.58;99889.39;107603;1259;72023;-67
2024/01/01 04:26:13;;;;;;;49.90;24.50;;;;;;;7.14;57.25;99880.43;107588;1257;60966;-65
2024/01/01 04:28:41;;;;;;;49.30;24.40;;;;;;;7.15;57.33;99877.23;107581;1256;59503;-63
2024/01/01 04:31:09;;;;;;;43.40;22.20;;;;;;;7.22;57.17;99870.95;107632;1256;73037;-65
2024/01/01 04:33:36;;;;;;;50.50;22.40;;;;;;;7.30;56.76;99869.15;107687;1256;69159;-66
2024/01/01 04:36:05;;;;;;;44.70;20.70;;;;;;;7.28;56.93;99862.75;107642;1259;71474;-65
2024/01/01 04:38:33;;;;;;;39.10;19.80;;;;;;;7.31;56.89;99854.11;107705;1256;60707;-66
2024/01/01 04:41:02;;;;;;;35.30;17.00;;;;;;;7.39;56.60;99851.28;107617;1257;60086;-64
2024/01/01 04:43:29;;;;;;;33.40;16.40;;;;;;;7.26;56.74;99850.74;107588;1262;73401;-66
2024/01/01 04:45:57;;;;;;;35.20;17.50;;;;;;;7.43;56.48;99853.59;107632;1256;69311;-68
2024/01/01 04:48:24;;;;;;;44.50;17.80;;;;;;;7.52;56.26;99855.09;107693;1256;72460;-66
2024/01/01 04:50:52;;;;;;;35.50;18.40;;;;;;;7.80;55.44;99854.27;107698;1259;60873;-66
2024/01/01 04:53:19;;;;;;;38.20;19.00;;;;;;;7.77;55.28;99852.61;107661;1256;59434;-65
2024/01/01 04:55:47;;;;;;;41.60;18.90;;;;;;;7.62;55.81;99856.88;107704;1257;70803;-65
2024/01/01 04:58:14;;;;;;;34.50;17.10;;;;;;;7.40;56.33;99849.84;107698;1257;70094;-65
2024/01/01 05:00:42;;;;;;;39.50;17.50;;;;;;;7.45;56.07;99843.23;107608;1257;72647;-69
2024/01/01 05:03:10;;;;;;;37.50;19.50;;;;;;;7.57;55.83;99845.50;107649;1257;59619;-67
2024/01/01 05:05:37;;;;;;;38.70;18.60;;;;;;;7.64;55.52;99839.52;107612;1257;59151;-66
2024/01/01 05:08:05;;;;;;;43.60;20.40;;;;;;;7.54;55.76;99840.17;107667;1256;71717;-66
2024/01/01 05:10:33;;;;;;;52.40;23.00;;;;;;;7.43;55.87;99832.45;107654;1256;68991;-66
2024/01/01 05:13:02;;;;;;;38.30;15.30;;;;;;;7.30;56.30;99833.00;107593;1259;73011;-66
2024/01/01 05:15:29;;;;;;;50.00;23.30;;;;;;;7.29;56.44;99833.02;107600;1257;60936;-64
2024/01/01 05:17:57;;;;;;;51.90;23.80;;;;;;;7.36;56.45;99830.21;107529;1257;60811;-64
2024/01/01 05:20:25;;;;;;;47.60;23.60;;;;;;;7.42;56.15;99829.16;107659;1256;71775;-63
2024/01/01 05:22:52;;;;;;;52.30;22.10;;;;;;;7.46;56.22;99825.21;107606;1256;68811;-65
2024/01/01 05:25:20;;;;;;;49.80;23.00;;;;;;;7.37;56.40;99827.04;107666;1259;71474;-65
2024/01/01 05:27:47;;;;;;;47.00;22.80;;;;;;;7.44;55.97;99820.91;107516;1264;59652;-66
2024/01/01 05:30:15;;;;;;;46.60;24.50;;;;;;;7.37;56.31;99819.70;107578;1262;59641;-65
2024/01/01 05:32:43;;;;;;;56.60;25.50;;;;;;;7.26;56.48;99819.67;107758;1257;73047;-66
2024/01/01 05:35:10;;;;;;;42.20;22.40;;;;;;;7.23;56.83;99812.09;107753;1256;70504;-66
2024/01/01 05:37:38;;;;;;;44.90;22.00;;;;;;;7.03;56.92;99805.14;107742;1256;70125;-66
2024/01/01 05:40:07;;;;;;;43.60;22.40;;;;;;;7.04;57.20;99805.61;107805;1256;60928;-66
2024/01/01 05:42:34;;;;;;;47.40;23.30;;;;;;;6.98;57.45;99801.25;107781;1256;59567;-66
2024/01/01 05:45:03;;;;;;;43.30;22.80;;;;;;;7.02;57.48;99792.07;107698;1257;71762;-67
2024/01/01 05:47:31;;;;;;;39.90;22.80;;;;;;;7.00;57.46;99791.77;107750;1256;69697;-66
2024/01/01 05:49:58;;;;;;;39.40;21.10;;;;;;;6.92;57.81;99795.47;107697;1257;72725;-67
2024/01/01 05:52:26;;;;;;;46.40;21.70;;;;;;;7.01;57.83;99809.04;107764;1256;60942;-67
2024/01/01 05:54:54;;;;;;;45.20;22.00;;;;;;;7.16;57.18;99813.14;107708;1256;60024;-67
2024/01/01 05:57:21;;;;;;;40.30;21.50;;;;;;;7.30;57.09;99810.47;107740;1262;73001;-66
2024/01/01 05:59:49;;;;;;;38.70;21.50;;;;;;;7.54;56.52;99803.65;107740;1257;69094;-67
2024/01/01 06:02:16;;;;;;;42.00;21.10;;;;;;;7.55;56.19;99797.87;107679;1261;72685;-66
2024/01/01 06:04:44;;;;;;;40.20;21.80;;;;;;;7.45;56.59;99804.27;107757;1260;59761;-66
2024/01/01 06:07:11;;;;;;;41.30;20.70;;;;;;;7.45;56.62;99805.67;107675;1257;59440;-66
2024/01/01 06:09:40;;;;;;;43.80;21.00;;;;;;;7.45;56.42;99805.31;107792;1256;70666;-65
2024/01/01 06:12:08;;;;;;;44.70;21.20;;;;;;;7.12;57.29;99807.29;108024;1254;70175;-66
2024/01/01 06:14:35;;;;;;;39.00;21.10;;;;;;;6.21;59.85;99808.13;108005;1254;73235;-62
2024/01/01 06:17:03;;;;;;;42.90;21.90;;;;;;;6.27;59.97;99811.65;107976;1254;60337;-65
2024/01/01 06:19:31;;;;;;;49.00;22.60;;;;;;;6.41;59.43;99809.02;108111;1253;59631;-68
2024/01/01 06:21:58;;;;;;;40.60;20.70;;;;;;;6.53;59.31;99807.16;108111;1256;73168;-65
2024/01/01 06:24:26;;;;;;;46.30;21.90;;;;;;;6.58;59.25;99812.42;108022;1258;69201;-66
2024/01/01 06:26:53;;;;;;;39.00;18.80;;;;;;;6.55;59.39;99814.61;108081;1258;71696;-63
2024/01/01 06:29:21;;;;;;;43.00;19.60;;;;;;;6.60;59.24;99808.02;107974;1254;60283;-65
2024/01/01 06:31:50;;;;;;;51.00;22.30;;;;;;;6.65;59.32;99805.11;108020;1254;61370;-65
2024/01/01 06:34:17;;;;;;;53.40;22.80;;;;;;;6.71;59.15;99794.30;108037;1259;73753;-67
2024/01/01 06:36:45;;;;;;;39.40;18.40;;;;;;;6.61;59.40;99790.03;108061;1254;68047;-66
2024/01/01 06:39:13;;;;;;;42.40;19.80;;;;;;;6.40;59.84;99786.55;107985;1254;71428;-67
2024/01/01 06:41:41;;;;;;;39.60;19.50;;;;;;;6.55;59.58;99786.70;107961;1254;60863;-66
2024/01/01 06:44:08;;;;;;;34.80;17.20;;;;;;;6.56;59.58;99783.55;107970;1254;60332;-67
2024/01/01 06:46:36;;;;;;;39.20;20.20;;;;;;;6.55;59.58;99779.89;108081;1254;72773;-66
2024/01/01 06:49:03;;;;;;;39.90;20.10;;;;;;;6.63;59.62;99773.77;108080;1254;69042;-66
2024/01/01 06:51:33;;;;;;;39.70;19.80;;;;;;;6.63;59.38;99769.06;108066;1254;71430;-66
2024/01/01 06:54:00;;;;;;;38.00;19.20;;;;;;;6.55;59.79;99757.05;108014;1257;60898;-65
2024/01/01 06:56:28;;;;;;;38.90;20.50;;;;;;;6.59;59.57;99760.06;108170;1254;60303;-67
2024/01/01 06:58:55;;;;;;;41.70;21.00;;;;;;;6.54;59.68;99758.30;108035;1254;72535;-67
2024/01/01 07:01:23;;;;;;;45.00;21.10;;;;;;;6.67;59.37;99752.36;108086;1254;70001;-64
2024/01/01 07:03:50;;;;;;;35.80;17.30;;;;;;;6.75;59.18;99750.58;108030;1257;72474;-66
2024/01/01 07:06:18;;;;;;;31.40;17.50;;;;;;;6.55;59.73;99750.24;108079;1255;59789;-65
2024/01/01 07:08:45;;;;;;;38.50;19.40;;;;;;;6.51;59.98;99736.91;108087;1254;60306;-67
2024/01/01 07:11:13;;;;;;;33.60;16.90;;;;;;;6.53;59.88;99734.08;108135;1252;72641;-66
2024/01/01 07:13:40;;;;;;;39.00;18.90;;;;;;;6.58;59.77;99723.99;108003;1253;69512;-66
2024/01/01 07:16:09;;;;;;;35.10;17.90;;;;;;;6.71;59.48;99721.38;108057;1254;71361;-65
2024/01/01 07:18:37;;;;;;;37.70;20.20;;;;;;;6.78;59.33;99719.08;107991;1254;60581;-67
2024/01/01 07:21:06;;;;;;;34.40;18.40;;;;;;;6.97;58.86;99719.23;108067;1254;60329;-68
2024/01/01 07:23:34;;;;;;;37.90;18.50;;;;;;;6.83;59.36;99724.01;107986;1254;73810;-66
2024/01/01 07:26:02;;;;;;;34.40;18.60;;;;;;;6.82;59.37;99726.83;107983;1254;68763;-68
2024/01/01 07:28:30;;;;;;;35.90;18.70;;;;;;;6.90;59.30;99725.89;107969;1257;71242;-67
2024/01/01 07:30:59;;;;;;;30.40;16.40;;;;;;;6.82;59.56;99724.20;108024;1254;60805;-67
2024/01/01 07:33:27;;;;;;;32.00;17.50;;;;;;;6.92;59.60;99715.20;108144;1253;60437;-67
2024/01/01 07:35:54;;;;;;;33.50;16.10;;;;;;;7.02;59.03;99713.68;108064;1259;73804;-66
2024/01/01 07:38:22;;;;;;;29.20;16.40;;;;;;;7.06;59.05;99711.64;108104;1253;69907;-67
2024/01/01 07:40:51;;;;;;;35.60;16.90;;;;;;;7.05;59.19;99705.73;108133;1252;71983;-66
2024/01/01 07:43:19;;;;;;;32.30;17.20;;;;;;;7.09;59.11;99700.94;108190;1254;60227;-67
2024/01/01 07:45:46;;;;;;;31.90;16.30;;;;;;;7.08;59.29;99693.61;108073;1254;60459;-68
2024/01/01 07:48:14;;;;;;;29.40;16.30;;;;;;;7.19;58.82;99695.39;108066;1254;72750;-66
2024/01/01 07:50:42;;;;;;;29.90;15.60;;;;;;;7.06;59.13;99695.08;108100;1258;69158;-67
2024/01/01 07:53:09;;;;;;;28.90;15.50;;;;;;;7.05;59.32;99690.58;108063;1254;72586;-65
2024/01/01 07:55:37;;;;;;;29.20;16.20;;;;;;;7.29;58.73;99686.55;108080;1254;60559;-63
2024/01/01 07:58:05;;;;;;;32.70;16.40;;;;;;;7.34;58.50;99682.86;108002;1254;59626;-65
2024/01/01 08:00:33;;;;;;;29.20;14.20;;;;;;;7.30;58.61;99677.94;108011;1254;72525;-67
2024/01/01 08:03:00;;;;;;;32.80;18.20;;;;;;;7.29;58.77;99672.38;108081;1254;69534;-65
2024/01/01 08:05:28;;;;;;;28.50;15.30;;;;;;;7.28;58.87;99666.30;108046;1254;71443;-65
2024/01/01 08:07:57;;;;;;;43.40;18.20;;;;;;;7.43;58.76;99664.97;108070;1254;60847;-67
2024/01/01 08:10:25;;;;;;;30.90;16.70;;;;;;;7.33;59.01;99662.84;108116;1254;59667;-67
2024/01/01 08:12:52;;;;;;;30.30;16.50;;;;;;;7.55;58.78;99664.58;108160;1254;73808;-68
2024/01/01 08:15:20;;;;;;;25.90;14.10;;;;;;;7.68;58.01;99663.64;108090;1254;69971;-66
2024/01/01 08:17:47;;;;;;;36.70;16.60;;;;;;;7.61;58.31;99659.50;108010;1254;72773;-66
2024/01/01 08:20:15;;;;;;;31.60;15.10;;;;;;;7.45;58.74;99652.66;108016;1254;60297;-65
2024/01/01 08:22:43;;;;;;;28.70;15.50;;;;;;;7.48;58.35;99655.20;108100;1253;60283;-67
2024/01/01 08:25:10;;;;;;;35.90;16.80;;;;;;;7.62;58.09;99650.01;108014;1254;72650;-66
2024/01/01 08:27:38;;;;;;;32.30;17.30;;;;;;;7.64;58.05;99642.78;108001;1254;71153;-68
2024/01/01 08:30:06;;;;;;;28.90;14.80;;;;;;;7.74;57.87;99646.33;108057;1253;72492;-65
2024/01/01 08:32:34;;;;;;;32.80;16.10;;;;;;;7.79;57.95;99639.14;108031;1253;60844;-66
2024/01/01 08:35:01;;;;;;;26.10;15.90;;;;;;;7.72;58.08;99634.66;108008;1253;60449;-68
2024/01/01 08:37:29;;;;;;;32.50;16.20;;;;;;;7.77;57.99;99623.84;108022;1253;71626;-66
2024/01/01 08:39:56;;;;;;;36.80;17.60;;;;;;;7.80;57.67;99616.21;107975;1253;69803;-65
2024/01/01 08:42:25;;;;;;;28.40;15.90;;;;;;;7.67;57.96;99610.38;108069;1255;72098;-67
2024/01/01 08:44:53;;;;;;;34.00;19.30;;;;;;;7.68;57.98;99616.45;107963;1254;61040;-66
2024/01/01 08:47:21;;;;;;;32.00;16.50;;;;;;;7.74;57.85;99607.48;108059;1253;60390;-65
2024/01/01 08:49:49;;;;;;;31.70;15.20;;;;;;;7.75;57.85;99605.91;108016;1253;73913;-67
2024/01/01 08:52:16;;;;;;;34.30;16.70;;;;;;;7.80;58.05;99602.77;108077;1253;69236;-67
2024/01/01 08:54:44;;;;;;;35.90;18.10;;;;;;;7.82;57.98;99598.32;107914;1254;72714;-68
2024/01/01 08:57:11;;;;;;;32.10;17.60;;;;;;;7.97;57.67;99599.39;108026;1253;60840;-67
2024/01/01 08:59:39;;;;;;;32.20;16.60;;;;;;;7.95;58.06;99595.96;108038;1253;60779;-67
2024/01/01 09:02:07;;;;;;;40.50;19.30;;;;;;;8.08;57.76;99590.27;108055;1253;76276;-67
2024/01/01 09:04:35;;;;;;;36.30;17.90;;;;;;;8.08;57.63;99587.30;107991;1253;69189;-67
2024/01/01 09:07:04;;;;;;;47.00;23.90;;;;;;;8.15;57.70;99591.79;107999;1253;73059;-66
2024/01/01 09:09:32;;;;;;;32.80;18.00;;;;;;;8.12;57.62;99587.33;108083;1253;60849;-67
2024/01/01 09:11:59;;;;;;;32.70;16.90;;;;;;;8.05;57.73;99585.14;108026;1253;60465;-66
2024/01/01 09:14:27;;;;;;;30.20;17.00;;;;;;;8.00;58.03;99573.95;107891;1253;73801;-67
2024/01/01 09:16:55;;;;;;;35.40;17.30;;;;;;;8.10;57.90;99559.95;108077;1254;68875;-66
2024/01/01 09:19:23;;;;;;;37.30;20.50;;;;;;;8.18;57.79;99551.10;107927;1257;70985;-67
2024/01/01 09:21:50;;;;;;;40.80;21.20;;;;;;;8.22;57.88;99547.44;107991;1254;61767;-67
2024/01/01 09:24:18;;;;;;;36.20;18.30;;;;;;;8.36;57.38;99546.25;108024;1253;60048;-67
2024/01/01 09:26:46;;;;;;;31.20;16.30;;;;;;;8.40;57.32;99551.72;107909;1253;74127;-67
2024/01/01 09:29:14;;;;;;;37.00;19.00;;;;;;;8.49;57.05;99551.91;107973;1253;70422;-68
2024/01/01 09:31:42;;;;;;;35.20;18.10;;;;;;;8.42;57.38;99551.45;107926;1254;72992;-68
2024/01/01 09:34:09;;;;;;;35.20;19.20;;;;;;;8.47;57.15;99554.77;108001;1253;60352;-67
2024/01/01 09:36:37;;;;;;;36.10;18.40;;;;;;;8.59;56.91;99553.95;108106;1258;62052;-68
2024/01/01 09:39:24;;;;;;;34.30;18.60;;;;;;;8.62;56.85;99548.95;108075;1252;72548;-67
2024/01/01 09:41:52;;;;;;;37.00;19.10;;;;;;;8.29;57.73;99541.61;108094;1254;69369;-67
2024/01/01 09:44:20;;;;;;;35.20;19.30;;;;;;;8.34;57.66;99543.16;108072;1254;72702;-67
2024/01/01 09:46:48;;;;;;;36.50;18.70;;;;;;;8.39;57.82;99538.10;108111;1254;60297;-68
2024/01/01 09:49:15;;;;;;;41.30;19.80;;;;;;;8.32;57.83;99535.02;107977;1254;60303;-67
2024/01/01 09:51:43;;;;;;;30.70;16.10;;;;;;;8.22;58.20;99526.49;108059;1254;72638;-68
2024/01/01 09:54:12;;;;;;;35.00;18.80;;;;;;;8.28;58.13;99517.34;108026;1254;70463;-67
2024/01/01 09:56:39;;;;;;;35.20;18.90;;;;;;;8.40;58.04;99509.89;108066;1254;70286;-68
2024/01/01 09:59:07;;;;;;;32.70;18.10;;;;;;;8.37;58.20;99498.82;108099;1253;61164;-68
2024/01/01 10:01:38;;;;;;;35.90;18.20;;;;;;;8.61;57.73;99490.89;108049;1253;60287;-67
2024/01/01 10:04:09;;;;;;;34.20;17.60;;;;;;;8.62;57.58;99495.77;108008;1254;72330;-67
2024/01/01 10:06:38;;;;;;;;;;;;;;;8.59;57.55;99493.45;108071;1254;69218;-67
2024/01/01 10:09:09;;;;;;;34.40;18.00;;;;;;;8.48;57.74;99493.85;107997;1256;71690;-65
2024/01/01 10:11:42;;;;;;;32.80;17.30;;;;;;;8.62;57.53;99488.96;108040;1254;60877;-68
2024/01/01 10:14:11;;;;;;;32.50;15.80;;;;;;;8.41;57.93;99489.23;108032;1254;60335;-67
2024/01/01 10:16:39;;;;;;;33.70;16.50;;;;;;;8.53;57.80;99494.38;108100;1254;72546;-68
2024/01/01 10:19:07;;;;;;;35.70;17.80;;;;;;;8.61;57.51;99493.70;108062;1254;68262;-67
2024/01/01 10:21:40;;;;;;;33.60;17.30;;;;;;;8.81;57.05;99489.08;108082;1254;72450;-67
2024/01/01 10:24:15;;;;;;;33.20;18.80;;;;;;;8.98;56.70;99479.61;108010;1254;60916;-68
2024/01/01 10:26:58;;;;;;;35.30;18.20;;;;;;;9.01;56.60;99479.16;108173;1254;60363;-68
2024/01/01 10:29:26;;;;;;;35.40;18.20;;;;;;;8.99;56.66;99468.35;107935;1254;73850;-67
2024/01/01 10:31:53;;;;;;;35.40;19.50;;;;;;;9.08;56.32;99465.57;107891;1254;70153;-67
2024/01/01 10:34:21;;;;;;;34.00;18.40;;;;;;;9.07;56.33;99452.67;108024;1254;72658;-66
2024/01/01 10:36:48;;;;;;;37.00;19.30;;;;;;;9.02;56.50;99444.08;108030;1256;60894;-68
2024/01/01 10:39:16;;;;;;;34.90;19.10;;;;;;;9.11;56.35;99434.60;107916;1254;60533;-64
2024/01/01 10:41:43;;;;;;;37.50;20.20;;;;;;;8.93;56.88;99437.98;107921;1254;71600;-68
2024/01/01 10:44:11;;;;;;;36.30;19.50;;;;;;;8.95;56.82;99440.88;107920;1254;69587;-65
2024/01/01 10:46:39;;;;;;;37.90;19.40;;;;;;;9.15;56.40;99436.55;108293;1254;72664;-67
2024/01/01 10:49:11;;;;;;;38.70;19.90;;;;;;;9.28;56.14;99425.85;108020;1254;60334;-66
2024/01/01 10:52:14;;;;;;;35.70;20.40;;;;;;;9.30;55.99;99424.17;108066;1259;59765;-67
2024/01/01 10:55:14;;;;;;;33.20;17.80;;;;;;;9.29;56.22;99408.48;107874;1254;72887;-66
2024/01/01 10:58:19;;;;;;;39.40;19.20;;;;;;;9.24;56.43;99407.80;108008;1254;69927;-67
2024/01/01 11:00:53;;;;;;;42.30;21.40;;;;;;;9.40;55.96;99407.98;108049;1255;72521;-67
2024/01/01 11:03:21;;;;;;;37.20;20.40;;;;;;;9.39;55.81;99400.30;108059;1254;60288;-65
2024/01/01 11:05:50;;;;;;;41.30;20.30;;;;;;;9.40;55.84;99394.50;107982;1254;59999;-67
2024/01/01 11:08:26;;;;;;;39.00;20.10;;;;;;;9.43;55.80;99379.27;107978;1254;72558;-68
2024/01/01 11:10:54;;;;;;;44.90;20.90;;;;;;;9.52;55.51;99377.31;108132;1253;70407;-67
2024/01/01 11:13:25;;;;;;;39.00;18.70;;;;;;;9.42;55.84;99372.33;108026;1254;72458;-68
2024/01/01 11:15:58;;;;;;;44.50;20.80;;;;;;;9.47;55.59;99362.85;108053;1253;60307;-68
2024/01/01 11:18:33;;;;;;;39.70;21.50;;;;;;;9.39;55.90;99354.92;108055;1255;60441;-68
2024/01/01 11:21:07;;;;;;;46.50;23.30;;;;;;;9.54;55.73;99348.13;108053;1253;72626;-67
2024/01/01 11:23:42;;;;;;;43.60;21.10;;;;;;;9.62;55.45;99353.04;108014;1254;69338;-67